createdAt,value
2023-04-01T00:00:40.899Z,8.77
2023-04-01T00:01:40.872Z,8.80
2023-04-01T00:02:40.941Z,8.83
2023-04-01T00:03:40.917Z,8.83
2023-04-01T00:04:40.910Z,8.84
2023-04-01T00:05:40.837Z,8.83
2023-04-01T00:06:40.845Z,8.81
2023-04-01T00:07:40.799Z,8.80
2023-04-01T00:08:40.818Z,8.81
2023-04-01T00:09:40.778Z,8.83
2023-04-01T00:10:40.790Z,8.86
2023-04-01T00:11:40.760Z,8.89
2023-04-01T00:12:40.792Z,8.92
2023-04-01T00:13:40.740Z,8.95
2023-04-01T00:14:40.764Z,8.99
2023-04-01T00:15:40.712Z,9.04
2023-04-01T00:16:40.755Z,9.05
2023-04-01T00:17:40.745Z,9.08
2023-04-01T00:18:40.699Z,9.10
2023-04-01T00:19:40.672Z,9.11
2023-04-01T00:20:40.679Z,9.14
2023-04-01T00:21:40.658Z,9.14
2023-04-01T00:22:40.667Z,9.17
2023-04-01T00:23:40.630Z,9.18
2023-04-01T00:24:40.653Z,9.20
2023-04-01T00:25:40.618Z,9.21
2023-04-01T00:26:40.610Z,9.24
2023-04-01T00:27:40.586Z,9.28
2023-04-01T00:28:40.603Z,9.28
2023-04-01T00:29:40.564Z,9.28
2023-04-01T00:30:40.573Z,9.32
2023-04-01T00:31:40.582Z,9.35
2023-04-01T00:32:40.628Z,9.36
2023-04-01T00:33:40.539Z,9.36
2023-04-01T00:34:40.541Z,9.39
2023-04-01T00:35:40.499Z,9.40
2023-04-01T00:36:40.542Z,9.42
2023-04-01T00:37:40.492Z,9.42
2023-04-01T00:38:40.524Z,9.46
2023-04-01T00:39:40.457Z,9.47
2023-04-01T00:40:40.484Z,9.46
2023-04-01T00:41:40.448Z,9.47
2023-04-01T00:42:40.443Z,9.48
2023-04-01T00:43:40.445Z,9.50
2023-04-01T00:44:40.454Z,9.51
2023-04-01T00:45:40.413Z,9.53
2023-04-01T00:46:40.429Z,9.56
2023-04-01T00:47:40.480Z,9.57
2023-04-01T00:48:40.400Z,9.56
2023-04-01T00:49:40.371Z,9.60
2023-04-01T00:50:40.371Z,9.61
2023-04-01T00:51:40.349Z,9.60
2023-04-01T00:52:40.337Z,9.65
2023-04-01T00:53:40.314Z,9.66
2023-04-01T00:54:40.330Z,9.71
2023-04-01T00:55:40.295Z,9.71
2023-04-01T00:56:40.300Z,9.71
2023-04-01T00:57:40.282Z,9.68
2023-04-01T00:58:40.294Z,9.69
2023-04-01T00:59:40.247Z,9.68
2023-04-01T01:00:40.341Z,9.66
2023-04-01T01:01:40.224Z,9.65
2023-04-01T01:02:40.443Z,9.65
2023-04-01T01:03:40.223Z,9.64
2023-04-01T01:04:40.222Z,9.65
2023-04-01T01:05:48.687Z,9.65
2023-04-01T01:06:40.209Z,9.65
2023-04-01T01:07:40.182Z,9.65
2023-04-01T01:08:40.148Z,9.68
2023-04-01T01:09:40.201Z,9.72
2023-04-01T01:10:40.150Z,9.69
2023-04-01T01:11:43.648Z,9.71
2023-04-01T01:12:40.105Z,9.72
2023-04-01T01:13:40.129Z,9.71
2023-04-01T01:14:40.088Z,9.72
2023-04-01T01:15:40.119Z,9.71
2023-04-01T01:16:40.162Z,9.69
2023-04-01T01:17:40.128Z,9.68
2023-04-01T01:18:40.059Z,9.66
2023-04-01T01:19:40.058Z,9.68
2023-04-01T01:20:40.052Z,9.68
2023-04-01T01:21:40.025Z,9.66
2023-04-01T01:22:40.014Z,9.66
2023-04-01T01:23:40.018Z,9.66
2023-04-01T01:24:39.982Z,9.68
2023-04-01T01:25:39.997Z,9.68
2023-04-01T01:26:39.975Z,9.66
2023-04-01T01:27:39.972Z,9.65
2023-04-01T01:28:39.930Z,9.66
2023-04-01T01:29:39.959Z,9.64
2023-04-01T01:30:39.962Z,9.65
2023-04-01T01:31:39.914Z,9.66
2023-04-01T01:32:39.968Z,9.68
2023-04-01T01:33:39.918Z,9.69
2023-04-01T01:34:39.868Z,9.69
2023-04-01T01:35:39.903Z,9.68
2023-04-01T01:36:39.854Z,9.66
2023-04-01T01:37:39.855Z,9.65
2023-04-01T01:38:39.823Z,9.65
2023-04-01T01:39:39.829Z,9.64
2023-04-01T01:40:39.800Z,9.64
2023-04-01T01:41:39.832Z,9.61
2023-04-01T01:42:39.800Z,9.61
2023-04-01T01:43:39.797Z,9.65
2023-04-01T01:44:39.755Z,9.65
2023-04-01T01:45:39.780Z,9.64
2023-04-01T01:46:39.786Z,9.65
2023-04-01T01:47:39.794Z,9.64
2023-04-01T01:48:39.713Z,9.65
2023-04-01T01:49:39.721Z,9.64
2023-04-01T01:50:39.691Z,9.61
2023-04-01T01:51:39.726Z,9.58
2023-04-01T01:52:39.687Z,9.57
2023-04-01T01:53:39.678Z,9.57
2023-04-01T01:54:39.649Z,9.57
2023-04-01T01:55:39.669Z,9.56
2023-04-01T01:56:39.637Z,9.56
2023-04-01T01:57:39.652Z,9.54
2023-04-01T01:58:39.601Z,9.53
2023-04-01T01:59:39.624Z,9.51
2023-04-01T02:00:39.581Z,9.50
2023-04-01T02:01:39.622Z,9.47
2023-04-01T02:02:39.585Z,9.46
2023-04-01T02:03:39.582Z,9.43
2023-04-01T02:04:39.594Z,9.42
2023-04-01T02:05:39.549Z,9.42
2023-04-01T02:06:39.525Z,9.43
2023-04-01T02:07:39.528Z,9.43
2023-04-01T02:08:39.500Z,9.46
2023-04-01T02:09:39.515Z,9.46
2023-04-01T02:10:39.480Z,9.46
2023-04-01T02:11:39.481Z,9.43
2023-04-01T02:12:39.453Z,9.46
2023-04-01T02:13:39.485Z,9.47
2023-04-01T02:14:39.434Z,9.46
2023-04-01T02:15:39.464Z,9.48
2023-04-01T02:16:39.416Z,9.47
2023-04-01T02:17:39.442Z,9.50
2023-04-01T02:18:39.388Z,9.50
2023-04-01T02:19:39.412Z,9.50
2023-04-01T02:20:39.387Z,9.50
2023-04-01T02:21:39.386Z,9.53
2023-04-01T02:22:39.354Z,9.53
2023-04-01T02:23:39.379Z,9.53
2023-04-01T02:24:39.323Z,9.54
2023-04-01T02:25:39.328Z,9.57
2023-04-01T02:26:39.298Z,9.58
2023-04-01T02:27:39.324Z,9.61
2023-04-01T02:28:39.286Z,9.60
2023-04-01T02:29:39.310Z,9.61
2023-04-01T02:30:39.262Z,9.64
2023-04-01T02:31:39.293Z,9.61
2023-04-01T02:32:39.310Z,9.64
2023-04-01T02:33:39.243Z,9.61
2023-04-01T02:34:39.244Z,9.60
2023-04-01T02:35:39.242Z,9.61
2023-04-01T02:36:39.198Z,9.60
2023-04-01T02:37:40.417Z,9.64
2023-04-01T02:38:39.168Z,9.65
2023-04-01T02:39:39.198Z,9.64
2023-04-01T02:40:39.158Z,9.65
2023-04-01T02:41:39.151Z,9.65
2023-04-01T02:42:39.133Z,9.66
2023-04-01T02:43:39.145Z,9.65
2023-04-01T02:44:39.116Z,9.64
2023-04-01T02:45:39.125Z,9.61
2023-04-01T02:46:39.129Z,9.60
2023-04-01T02:47:39.149Z,9.60
2023-04-01T02:48:39.089Z,9.61
2023-04-01T02:49:39.093Z,9.61
2023-04-01T02:50:39.042Z,9.61
2023-04-01T02:51:39.061Z,9.61
2023-04-01T02:52:39.045Z,9.64
2023-04-01T02:53:39.030Z,9.61
2023-04-01T02:54:39.008Z,9.61
2023-04-01T02:55:39.007Z,9.61
2023-04-01T02:56:39.004Z,9.64
2023-04-01T02:57:38.984Z,9.64
2023-04-01T02:58:38.972Z,9.64
2023-04-01T02:59:38.969Z,9.61
2023-04-01T03:00:38.938Z,9.60
2023-04-01T03:01:38.989Z,9.61
2023-04-01T03:02:38.990Z,9.61
2023-04-01T03:03:38.962Z,9.64
2023-04-01T03:04:38.891Z,9.61
2023-04-01T03:05:38.900Z,9.61
2023-04-01T03:06:38.878Z,9.60
2023-04-01T03:07:38.902Z,9.61
2023-04-01T03:08:38.857Z,9.61
2023-04-01T03:09:38.861Z,9.61
2023-04-01T03:10:38.829Z,9.61
2023-04-01T03:11:38.833Z,9.64
2023-04-01T03:12:38.809Z,9.61
2023-04-01T03:13:38.837Z,9.64
2023-04-01T03:14:38.797Z,9.61
2023-04-01T03:15:38.802Z,9.60
2023-04-01T03:16:38.810Z,9.60
2023-04-01T03:17:38.806Z,9.60
2023-04-01T03:18:38.751Z,9.61
2023-04-01T03:19:38.744Z,9.65
2023-04-01T03:20:38.719Z,9.64
2023-04-01T03:21:38.732Z,9.66
2023-04-01T03:22:40.252Z,9.65
2023-04-01T03:23:38.707Z,9.64
2023-04-01T03:24:38.675Z,9.65
2023-04-01T03:25:38.727Z,9.64
2023-04-01T03:26:38.661Z,9.61
2023-04-01T03:27:38.665Z,9.60
2023-04-01T03:28:38.632Z,9.60
2023-04-01T03:29:38.692Z,9.60
2023-04-01T03:30:38.639Z,9.60
2023-04-01T03:31:38.627Z,9.61
2023-04-01T03:32:38.620Z,9.60
2023-04-01T03:33:38.598Z,9.60
2023-04-01T03:34:38.561Z,9.60
2023-04-01T03:35:38.598Z,9.57
2023-04-01T03:36:38.588Z,9.60
2023-04-01T03:37:38.568Z,9.58
2023-04-01T03:38:38.522Z,9.58
2023-04-01T03:39:38.539Z,9.57
2023-04-01T03:40:38.494Z,9.56
2023-04-01T03:41:38.544Z,9.56
2023-04-01T03:42:38.497Z,9.56
2023-04-01T03:43:38.483Z,9.56
2023-04-01T03:44:38.465Z,9.54
2023-04-01T03:45:38.483Z,9.53
2023-04-01T03:46:38.513Z,9.54
2023-04-01T03:47:38.471Z,9.53
2023-04-01T03:48:38.409Z,9.54
2023-04-01T03:49:38.423Z,9.56
2023-04-01T03:50:38.398Z,9.54
2023-04-01T03:51:38.411Z,9.53
2023-04-01T03:52:38.379Z,9.56
2023-04-01T03:53:38.397Z,9.56
2023-04-01T03:54:38.376Z,9.56
2023-04-01T03:55:38.367Z,9.58
2023-04-01T03:56:38.338Z,9.56
2023-04-01T03:57:38.354Z,9.57
2023-04-01T03:58:38.317Z,9.57
2023-04-01T03:59:38.327Z,9.56
2023-04-01T04:00:38.281Z,9.53
2023-04-01T04:01:38.295Z,9.54
2023-04-01T04:02:38.356Z,9.53
2023-04-01T04:03:38.444Z,9.50
2023-04-01T04:04:38.309Z,9.53
2023-04-01T04:05:38.247Z,9.53
2023-04-01T04:06:38.223Z,9.54
2023-04-01T04:07:38.229Z,9.56
2023-04-01T04:08:38.211Z,9.54
2023-04-01T04:09:38.218Z,9.56
2023-04-01T04:10:38.184Z,9.56
2023-04-01T04:11:38.196Z,9.53
2023-04-01T04:12:38.179Z,9.53
2023-04-01T04:13:38.164Z,9.51
2023-04-01T04:14:38.141Z,9.50
2023-04-01T04:15:38.171Z,9.50
2023-04-01T04:16:38.119Z,9.50
2023-04-01T04:17:38.170Z,9.47
2023-04-01T04:18:38.099Z,9.48
2023-04-01T04:19:38.137Z,9.48
2023-04-01T04:20:38.076Z,9.48
2023-04-01T04:21:38.089Z,9.50
2023-04-01T04:22:38.068Z,9.50
2023-04-01T04:23:38.060Z,9.50
2023-04-01T04:24:38.037Z,9.50
2023-04-01T04:25:38.059Z,9.53
2023-04-01T04:26:38.003Z,9.50
2023-04-01T04:27:38.030Z,9.51
2023-04-01T04:28:37.983Z,9.50
2023-04-01T04:29:38.009Z,9.50
2023-04-01T04:30:37.982Z,9.50
2023-04-01T04:31:37.989Z,9.50
2023-04-01T04:32:37.899Z,9.51
2023-04-01T04:33:37.946Z,9.51
2023-04-01T04:34:37.881Z,9.50
2023-04-01T04:35:37.967Z,9.51
2023-04-01T04:36:37.916Z,9.51
2023-04-01T04:37:37.917Z,9.51
2023-04-01T04:38:37.830Z,9.51
2023-04-01T04:39:37.893Z,9.53
2023-04-01T04:40:37.855Z,9.51
2023-04-01T04:41:37.871Z,9.53
2023-04-01T04:42:37.800Z,9.54
2023-04-01T04:43:37.797Z,9.53
2023-04-01T04:44:37.783Z,9.51
2023-04-01T04:45:37.780Z,9.50
2023-04-01T04:46:37.846Z,9.47
2023-04-01T04:47:37.770Z,9.46
2023-04-01T04:48:37.721Z,9.43
2023-04-01T04:49:37.719Z,9.42
2023-04-01T04:50:37.718Z,9.40
2023-04-01T04:51:37.710Z,9.38
2023-04-01T04:52:37.670Z,9.36
2023-04-01T04:53:37.691Z,9.35
2023-04-01T04:54:37.676Z,9.33
2023-04-01T04:55:37.673Z,9.32
2023-04-01T04:56:37.636Z,9.31
2023-04-01T04:57:37.644Z,9.31
2023-04-01T04:58:37.600Z,9.28
2023-04-01T04:59:37.629Z,9.28
2023-04-01T05:00:37.586Z,9.29
2023-04-01T05:01:37.665Z,9.28
2023-04-01T05:02:37.635Z,9.26
2023-04-01T05:03:37.582Z,9.28
2023-04-01T05:04:37.558Z,9.28
2023-04-01T05:05:37.561Z,9.26
2023-04-01T05:06:37.519Z,9.24
2023-04-01T05:07:37.556Z,9.26
2023-04-01T05:08:37.503Z,9.28
2023-04-01T05:09:37.515Z,9.26
2023-04-01T05:10:37.473Z,9.28
2023-04-01T05:11:37.493Z,9.28
2023-04-01T05:12:37.451Z,9.24
2023-04-01T05:13:37.461Z,9.24
2023-04-01T05:14:37.459Z,9.24
2023-04-01T05:15:37.434Z,9.23
2023-04-01T05:16:37.462Z,9.23
2023-04-01T05:17:37.489Z,9.24
2023-04-01T05:18:37.396Z,9.20
2023-04-01T05:19:37.389Z,9.20
2023-04-01T05:20:37.362Z,9.21
2023-04-01T05:21:37.353Z,9.23
2023-04-01T05:22:37.356Z,9.23
2023-04-01T05:23:37.339Z,9.23
2023-04-01T05:24:37.367Z,9.23
2023-04-01T05:25:37.321Z,9.26
2023-04-01T05:26:37.328Z,9.24
2023-04-01T05:27:37.286Z,9.26
2023-04-01T05:28:37.306Z,9.26
2023-04-01T05:29:37.263Z,9.29
2023-04-01T05:30:37.311Z,9.28
2023-04-01T05:31:37.251Z,9.28
2023-04-01T05:32:37.280Z,9.29
2023-04-01T05:33:37.223Z,9.29
2023-04-01T05:34:37.253Z,9.29
2023-04-01T05:35:37.234Z,9.29
2023-04-01T05:36:37.231Z,9.31
2023-04-01T05:37:37.196Z,9.33
2023-04-01T05:38:37.213Z,9.32
2023-04-01T05:39:37.156Z,9.33
2023-04-01T05:40:37.222Z,9.32
2023-04-01T05:41:37.143Z,9.33
2023-04-01T05:42:38.286Z,9.33
2023-04-01T05:43:37.120Z,9.32
2023-04-01T05:44:37.151Z,9.32
2023-04-01T05:45:37.094Z,9.33
2023-04-01T05:46:37.218Z,9.35
2023-04-01T05:47:37.105Z,9.35
2023-04-01T05:48:37.101Z,9.32
2023-04-01T05:49:37.071Z,9.33
2023-04-01T05:50:37.070Z,9.32
2023-04-01T05:51:37.032Z,9.31
2023-04-01T05:52:37.034Z,9.33
2023-04-01T05:53:37.010Z,9.33
2023-04-01T05:54:37.017Z,9.32
2023-04-01T05:55:37.004Z,9.33
2023-04-01T05:56:37.005Z,9.32
2023-04-01T05:57:36.989Z,9.33
2023-04-01T05:58:36.980Z,9.33
2023-04-01T05:59:36.945Z,9.33
2023-04-01T06:00:36.953Z,9.35
2023-04-01T06:01:36.927Z,9.35
2023-04-01T06:02:36.964Z,9.36
2023-04-01T06:03:37.081Z,9.38
2023-04-01T06:04:36.938Z,9.36
2023-04-01T06:05:36.893Z,9.35
2023-04-01T06:06:36.894Z,9.32
2023-04-01T06:07:36.853Z,9.28
2023-04-01T06:08:36.866Z,9.26
2023-04-01T06:09:36.844Z,9.21
2023-04-01T06:10:36.838Z,9.20
2023-04-01T06:11:36.843Z,9.20
2023-04-01T06:12:36.832Z,9.20
2023-04-01T06:13:36.792Z,9.23
2023-04-01T06:14:36.809Z,9.21
2023-04-01T06:15:36.782Z,9.23
2023-04-01T06:16:36.831Z,9.28
2023-04-01T06:17:36.770Z,9.31
2023-04-01T06:18:36.772Z,9.31
2023-04-01T06:19:36.723Z,9.31
2023-04-01T06:20:36.726Z,9.33
2023-04-01T06:21:36.699Z,9.36
2023-04-01T06:22:36.742Z,9.40
2023-04-01T06:23:36.752Z,9.42
2023-04-01T06:24:36.711Z,9.42
2023-04-01T06:25:36.655Z,9.43
2023-04-01T06:26:36.681Z,9.47
2023-04-01T06:27:36.648Z,9.48
2023-04-01T06:28:36.647Z,9.51
2023-04-01T06:29:36.624Z,9.50
2023-04-01T06:30:36.636Z,9.54
2023-04-01T06:31:36.632Z,9.64
2023-04-01T06:32:36.662Z,9.71
2023-04-01T06:33:36.595Z,9.81
2023-04-01T06:34:36.578Z,9.87
2023-04-01T06:35:36.879Z,9.89
2023-04-01T06:36:36.612Z,9.86
2023-04-01T06:37:36.570Z,9.90
2023-04-01T06:38:36.537Z,9.90
2023-04-01T06:39:36.518Z,9.90
2023-04-01T06:40:36.517Z,9.90
2023-04-01T06:41:36.508Z,9.96
2023-04-01T06:42:36.497Z,9.97
2023-04-01T06:43:36.480Z,9.99
2023-04-01T06:44:36.486Z,10.02
2023-04-01T06:45:36.805Z,10.09
2023-04-01T06:46:36.456Z,10.15
2023-04-01T06:47:36.443Z,10.15
2023-04-01T06:48:36.430Z,10.15
2023-04-01T06:49:36.423Z,10.11
2023-04-01T06:50:36.423Z,10.14
2023-04-01T06:51:36.393Z,10.11
2023-04-01T06:52:36.400Z,10.08
2023-04-01T06:53:36.410Z,10.11
2023-04-01T06:54:36.378Z,10.09
2023-04-01T06:55:36.335Z,10.12
2023-04-01T06:56:36.341Z,10.14
2023-04-01T06:57:36.325Z,10.15
2023-04-01T06:58:36.365Z,10.14
2023-04-01T06:59:36.321Z,10.14
2023-04-01T07:00:36.324Z,10.17
2023-04-01T07:01:36.301Z,10.20
2023-04-01T07:02:36.300Z,10.26
2023-04-01T07:03:36.272Z,10.27
2023-04-01T07:04:36.292Z,10.32
2023-04-01T07:05:36.257Z,10.27
2023-04-01T07:06:36.253Z,10.25
2023-04-01T07:07:36.225Z,10.23
2023-04-01T07:08:36.213Z,10.25
2023-04-01T07:09:36.184Z,10.27
2023-04-01T07:10:36.201Z,10.29
2023-04-01T07:11:36.179Z,10.33
2023-04-01T07:12:36.278Z,10.38
2023-04-01T07:13:36.149Z,10.40
2023-04-01T07:14:36.165Z,10.42
2023-04-01T07:15:36.148Z,10.52
2023-04-01T07:16:36.157Z,10.53
2023-04-01T07:17:36.127Z,10.53
2023-04-01T07:18:36.117Z,10.56
2023-04-01T07:19:36.076Z,10.59
2023-04-01T07:20:36.115Z,10.59
2023-04-01T07:21:36.061Z,10.53
2023-04-01T07:22:36.059Z,10.53
2023-04-01T07:23:36.038Z,10.53
2023-04-01T07:24:36.039Z,10.59
2023-04-01T07:25:36.162Z,10.55
2023-04-01T07:26:36.117Z,10.53
2023-04-01T07:27:36.011Z,10.55
2023-04-01T07:28:36.065Z,10.53
2023-04-01T07:29:34.957Z,10.55
2023-04-01T07:30:36.003Z,10.59
2023-04-01T07:31:36.023Z,10.60
2023-04-01T07:32:36.441Z,10.56
2023-04-01T07:33:35.940Z,10.56
2023-04-01T07:34:35.931Z,10.61
2023-04-01T07:35:35.901Z,10.70
2023-04-01T07:36:35.910Z,10.68
2023-04-01T07:37:35.887Z,10.68
2023-04-01T07:38:35.953Z,10.68
2023-04-01T07:39:35.883Z,10.70
2023-04-01T07:40:35.874Z,10.73
2023-04-01T07:41:35.872Z,10.76
2023-04-01T07:42:35.840Z,10.78
2023-04-01T07:43:35.830Z,10.79
2023-04-01T07:44:35.824Z,10.79
2023-04-01T07:45:36.154Z,10.79
2023-04-01T07:46:35.834Z,10.79
2023-04-01T07:47:35.814Z,10.78
2023-04-01T07:48:35.775Z,10.81
2023-04-01T07:49:35.758Z,10.85
2023-04-01T07:50:35.766Z,10.89
2023-04-01T07:51:35.828Z,10.88
2023-04-01T07:52:35.746Z,10.86
2023-04-01T07:53:35.715Z,10.84
2023-04-01T07:54:35.742Z,10.82
2023-04-01T07:55:36.026Z,10.89
2023-04-01T07:56:35.688Z,10.88
2023-04-01T07:57:35.664Z,10.86
2023-04-01T07:58:35.667Z,10.89
2023-04-01T07:59:35.642Z,10.88
2023-04-01T08:00:35.672Z,10.86
2023-04-01T08:01:35.623Z,10.84
2023-04-01T08:02:35.688Z,10.82
2023-04-01T08:03:35.718Z,10.84
2023-04-01T08:04:35.695Z,10.86
2023-04-01T08:05:35.793Z,10.88
2023-04-01T08:06:35.596Z,10.92
2023-04-01T08:07:35.581Z,10.97
2023-04-01T08:08:35.557Z,10.96
2023-04-01T08:09:35.543Z,11.02
2023-04-01T08:10:35.581Z,10.99
2023-04-01T08:11:35.543Z,11.00
2023-04-01T08:12:35.524Z,10.99
2023-04-01T08:13:35.504Z,10.99
2023-04-01T08:14:35.493Z,11.00
2023-04-01T08:15:35.700Z,11.03
2023-04-01T08:16:35.638Z,11.03
2023-04-01T08:17:35.460Z,11.04
2023-04-01T08:18:35.463Z,11.03
2023-04-01T08:19:35.424Z,11.00
2023-04-01T08:20:35.432Z,11.02
2023-04-01T08:21:35.397Z,11.03
2023-04-01T08:22:35.416Z,11.09
2023-04-01T08:23:35.378Z,11.15
2023-04-01T08:24:46.602Z,11.17
2023-04-01T08:25:35.593Z,11.17
2023-04-01T08:26:35.385Z,11.19
2023-04-01T08:27:35.329Z,11.19
2023-04-01T08:28:35.363Z,11.21
2023-04-01T08:29:35.322Z,11.22
2023-04-01T08:30:35.319Z,11.19
2023-04-01T08:31:35.343Z,11.19
2023-04-01T08:32:35.345Z,11.21
2023-04-01T08:33:35.270Z,11.22
2023-04-01T08:34:35.274Z,11.18
2023-04-01T08:35:37.007Z,11.19
2023-04-01T08:36:35.305Z,11.25
2023-04-01T08:37:35.219Z,11.29
2023-04-01T08:38:35.256Z,11.35
2023-04-01T08:39:35.265Z,11.35
2023-04-01T08:40:35.226Z,11.35
2023-04-01T08:41:35.220Z,11.35
2023-04-01T08:42:35.192Z,11.32
2023-04-01T08:43:35.166Z,11.32
2023-04-01T08:44:35.165Z,11.29
2023-04-01T08:45:35.406Z,11.27
2023-04-01T08:46:35.180Z,11.24
2023-04-01T08:47:35.161Z,11.18
2023-04-01T08:48:35.133Z,11.15
2023-04-01T08:49:35.089Z,11.15
2023-04-01T08:50:35.124Z,11.10
2023-04-01T08:51:35.080Z,11.09
2023-04-01T08:52:35.080Z,11.09
2023-04-01T08:53:35.051Z,11.15
2023-04-01T08:54:35.069Z,11.18
2023-04-01T08:55:35.306Z,11.22
2023-04-01T08:56:35.074Z,11.25
2023-04-01T08:57:35.064Z,11.27
2023-04-01T08:58:35.036Z,11.27
2023-04-01T08:59:34.985Z,11.25
2023-04-01T09:00:35.025Z,11.22
2023-04-01T09:01:34.968Z,11.27
2023-04-01T09:02:35.079Z,11.32
2023-04-01T09:03:35.137Z,11.37
2023-04-01T09:04:35.040Z,11.37
2023-04-01T09:05:35.151Z,11.37
2023-04-01T09:06:34.933Z,11.33
2023-04-01T09:07:34.894Z,11.28
2023-04-01T09:08:34.920Z,11.24
2023-04-01T09:09:34.884Z,11.27
2023-04-01T09:10:34.890Z,11.27
2023-04-01T09:11:34.884Z,11.27
2023-04-01T09:12:34.917Z,11.28
2023-04-01T09:13:34.842Z,11.33
2023-04-01T09:14:34.867Z,11.35
2023-04-01T09:15:35.107Z,11.37
2023-04-01T09:16:34.949Z,11.35
2023-04-01T09:17:34.831Z,11.36
2023-04-01T09:18:34.805Z,11.35
2023-04-01T09:19:34.772Z,11.35
2023-04-01T09:20:34.786Z,11.32
2023-04-01T09:21:34.745Z,11.22
2023-04-01T09:22:34.798Z,11.14
2023-04-01T09:23:34.724Z,11.11
2023-04-01T09:24:34.740Z,11.10
2023-04-01T09:25:35.099Z,11.09
2023-04-01T09:26:34.713Z,11.10
2023-04-01T09:27:34.682Z,11.10
2023-04-01T09:28:34.687Z,11.09
2023-04-01T09:29:34.708Z,11.09
2023-04-01T09:30:34.696Z,11.04
2023-04-01T09:31:34.670Z,11.00
2023-04-01T09:32:34.693Z,10.96
2023-04-01T09:33:34.617Z,10.96
2023-04-01T09:34:34.645Z,11.00
2023-04-01T09:35:34.958Z,11.00
2023-04-01T09:36:34.593Z,10.99
2023-04-01T09:37:34.597Z,10.97
2023-04-01T09:38:34.568Z,11.00
2023-04-01T09:39:34.608Z,11.03
2023-04-01T09:40:34.544Z,11.03
2023-04-01T09:41:34.562Z,11.06
2023-04-01T09:42:34.529Z,11.02
2023-04-01T09:43:34.604Z,11.03
2023-04-01T09:44:34.501Z,11.06
2023-04-01T09:45:34.692Z,11.00
2023-04-01T09:46:34.511Z,10.99
2023-04-01T09:47:34.515Z,11.00
2023-04-01T09:48:34.478Z,11.02
2023-04-01T09:49:34.484Z,11.00
2023-04-01T09:50:34.441Z,11.02
2023-04-01T09:51:34.448Z,11.07
2023-04-01T09:52:34.428Z,11.10
2023-04-01T09:53:34.441Z,11.11
2023-04-01T09:54:34.400Z,11.14
2023-04-01T09:55:34.746Z,11.15
2023-04-01T09:56:34.420Z,11.10
2023-04-01T09:57:34.430Z,11.03
2023-04-01T09:58:34.350Z,10.99
2023-04-01T09:59:34.376Z,10.96
2023-04-01T10:00:34.338Z,10.92
2023-04-01T10:01:34.424Z,10.88
2023-04-01T10:02:34.358Z,10.81
2023-04-01T10:03:34.337Z,10.73
2023-04-01T10:04:34.304Z,10.67
2023-04-01T10:05:34.540Z,10.66
2023-04-01T10:06:34.290Z,10.59
2023-04-01T10:07:34.286Z,10.47
2023-04-01T10:08:34.236Z,10.44
2023-04-01T10:09:34.262Z,10.40
2023-04-01T10:10:34.210Z,10.32
2023-04-01T10:11:34.239Z,10.27
2023-04-01T10:12:34.229Z,10.22
2023-04-01T10:13:34.195Z,10.17
2023-04-01T10:14:34.177Z,10.14
2023-04-01T10:15:34.544Z,10.14
2023-04-01T10:16:34.243Z,10.15
2023-04-01T10:17:34.205Z,10.09
2023-04-01T10:18:34.134Z,10.08
2023-04-01T10:19:34.198Z,10.07
2023-04-01T10:20:34.099Z,10.04
2023-04-01T10:21:34.120Z,10.01
2023-04-01T10:22:34.091Z,10.05
2023-04-01T10:23:34.105Z,10.07
2023-04-01T10:24:34.088Z,10.12
2023-04-01T10:25:34.306Z,10.12
2023-04-01T10:26:34.104Z,10.14
2023-04-01T10:27:34.066Z,10.15
2023-04-01T10:28:34.020Z,10.15
2023-04-01T10:29:34.040Z,10.18
2023-04-01T10:30:34.008Z,10.18
2023-04-01T10:31:34.151Z,10.20
2023-04-01T10:32:34.599Z,10.23
2023-04-01T10:33:33.983Z,10.26
2023-04-01T10:34:33.953Z,10.27
2023-04-01T10:35:34.202Z,10.26
2023-04-01T10:36:33.926Z,10.23
2023-04-01T10:37:33.952Z,10.27
2023-04-01T10:38:33.917Z,10.32
2023-04-01T10:39:33.924Z,10.25
2023-04-01T10:40:33.888Z,10.20
2023-04-01T10:41:33.909Z,10.17
2023-04-01T10:42:33.868Z,10.09
2023-04-01T10:43:33.879Z,10.08
2023-04-01T10:44:33.838Z,10.05
2023-04-01T10:45:34.070Z,10.04
2023-04-01T10:46:33.946Z,10.04
2023-04-01T10:47:33.845Z,10.07
2023-04-01T10:48:33.793Z,10.08
2023-04-01T10:49:33.801Z,10.05
2023-04-01T10:50:33.794Z,10.01
2023-04-01T10:51:33.777Z,9.97
2023-04-01T10:52:33.777Z,9.99
2023-04-01T10:53:33.757Z,9.99
2023-04-01T10:54:33.781Z,10.01
2023-04-01T10:55:33.962Z,9.97
2023-04-01T10:56:33.714Z,9.96
2023-04-01T10:57:33.989Z,9.96
2023-04-01T10:58:33.701Z,9.91
2023-04-01T10:59:33.792Z,9.84
2023-04-01T11:00:33.687Z,9.81
2023-04-01T11:01:33.737Z,9.81
2023-04-01T11:02:33.691Z,9.79
2023-04-01T11:03:33.832Z,9.81
2023-04-01T11:04:33.626Z,9.86
2023-04-01T11:05:33.887Z,9.79
2023-04-01T11:06:33.607Z,9.78
2023-04-01T11:07:33.626Z,9.81
2023-04-01T11:08:33.584Z,9.75
2023-04-01T11:09:33.585Z,9.75
2023-04-01T11:10:33.615Z,9.79
2023-04-01T11:11:33.586Z,9.76
2023-04-01T11:12:33.536Z,9.76
2023-04-01T11:13:33.602Z,9.76
2023-04-01T11:14:33.525Z,9.76
2023-04-01T11:15:33.792Z,9.79
2023-04-01T11:16:33.577Z,9.83
2023-04-01T11:17:33.608Z,9.81
2023-04-01T11:18:33.470Z,9.81
2023-04-01T11:19:33.501Z,9.76
2023-04-01T11:20:33.448Z,9.79
2023-04-01T11:21:33.454Z,9.76
2023-04-01T11:22:33.433Z,9.74
2023-04-01T11:23:33.438Z,9.68
2023-04-01T11:24:33.426Z,9.64
2023-04-01T11:25:33.604Z,9.60
2023-04-01T11:26:33.414Z,9.57
2023-04-01T11:27:33.387Z,9.54
2023-04-01T11:28:33.359Z,9.56
2023-04-01T11:29:33.381Z,9.57
2023-04-01T11:30:33.376Z,9.60
2023-04-01T11:31:33.415Z,9.65
2023-04-01T11:32:33.337Z,9.71
2023-04-01T11:33:33.325Z,9.75
2023-04-01T11:34:33.321Z,9.79
2023-04-01T11:35:33.529Z,9.79
2023-04-01T11:36:33.325Z,9.78
2023-04-01T11:37:33.280Z,9.81
2023-04-01T11:38:33.265Z,9.84
2023-04-01T11:39:33.273Z,9.89
2023-04-01T11:40:33.236Z,9.91
2023-04-01T11:41:33.262Z,9.87
2023-04-01T11:42:33.257Z,9.89
2023-04-01T11:43:34.059Z,9.96
2023-04-01T11:44:33.194Z,10.04
2023-04-01T11:45:33.332Z,10.05
2023-04-01T11:46:33.231Z,10.05
2023-04-01T11:47:33.258Z,10.05
2023-04-01T11:48:33.144Z,10.02
2023-04-01T11:49:33.170Z,9.96
2023-04-01T11:50:33.126Z,9.93
2023-04-01T11:51:33.162Z,9.97
2023-04-01T11:52:33.112Z,9.97
2023-04-01T11:53:33.132Z,10.01
2023-04-01T11:54:33.101Z,10.02
2023-04-01T11:55:33.373Z,9.96
2023-04-01T11:56:33.063Z,9.93
2023-04-01T11:57:33.105Z,9.91
2023-04-01T11:58:33.035Z,9.83
2023-04-01T11:59:33.042Z,9.76
2023-04-01T12:00:33.014Z,9.78
2023-04-01T12:01:33.035Z,9.76
2023-04-01T12:02:33.089Z,9.75
2023-04-01T12:03:33.181Z,9.74
2023-04-01T12:04:33.003Z,9.78
2023-04-01T12:05:33.106Z,9.83
2023-04-01T12:06:32.952Z,9.84
2023-04-01T12:07:32.968Z,9.93
2023-04-01T12:08:32.931Z,10.01
2023-04-01T12:09:32.933Z,10.11
2023-04-01T12:10:32.923Z,10.22
2023-04-01T12:11:32.923Z,10.29
2023-04-01T12:12:32.890Z,10.29
2023-04-01T12:13:32.939Z,10.33
2023-04-01T12:14:32.866Z,10.33
2023-04-01T12:15:33.012Z,10.32
2023-04-01T12:16:33.002Z,10.32
2023-04-01T12:17:32.896Z,10.34
2023-04-01T12:18:32.822Z,10.25
2023-04-01T12:19:32.850Z,10.22
2023-04-01T12:20:32.798Z,10.26
2023-04-01T12:21:32.827Z,10.22
2023-04-01T12:22:33.966Z,10.20
2023-04-01T12:23:32.798Z,10.22
2023-04-01T12:24:32.885Z,10.20
2023-04-01T12:25:32.987Z,10.17
2023-04-01T12:26:32.733Z,10.17
2023-04-01T12:27:32.740Z,10.17
2023-04-01T12:28:32.729Z,10.18
2023-04-01T12:29:32.764Z,10.18
2023-04-01T12:30:32.692Z,10.18
2023-04-01T12:31:32.720Z,10.17
2023-04-01T12:32:32.673Z,10.22
2023-04-01T12:33:32.679Z,10.18
2023-04-01T12:34:32.672Z,10.17
2023-04-01T12:35:33.050Z,10.17
2023-04-01T12:36:32.631Z,10.17
2023-04-01T12:37:32.645Z,10.18
2023-04-01T12:38:32.605Z,10.18
2023-04-01T12:39:32.616Z,10.14
2023-04-01T12:40:32.889Z,10.15
2023-04-01T12:41:32.590Z,10.14
2023-04-01T12:42:32.561Z,10.11
2023-04-01T12:43:32.569Z,10.11
2023-04-01T12:44:32.540Z,10.09
2023-04-01T12:45:32.901Z,10.12
2023-04-01T12:46:32.625Z,10.09
2023-04-01T12:47:32.566Z,10.11
2023-04-01T12:48:32.491Z,10.11
2023-04-01T12:49:32.504Z,10.09
2023-04-01T12:50:32.484Z,10.11
2023-04-01T12:51:32.480Z,10.11
2023-04-01T12:52:32.450Z,10.12
2023-04-01T12:53:32.455Z,10.15
2023-04-01T12:54:32.428Z,10.14
2023-04-01T12:55:32.582Z,10.09
2023-04-01T12:56:32.421Z,10.11
2023-04-01T12:57:32.559Z,10.11
2023-04-01T12:58:32.389Z,10.09
2023-04-01T12:59:32.399Z,10.09
2023-04-01T13:00:32.369Z,10.07
2023-04-01T13:01:32.396Z,10.08
2023-04-01T13:02:32.373Z,10.12
2023-04-01T13:03:32.378Z,10.15
2023-04-01T13:04:32.322Z,10.14
2023-04-01T13:05:32.417Z,10.12
2023-04-01T13:06:32.325Z,10.09
2023-04-01T13:07:32.319Z,10.09